Terminal Aerodrome Forecast
Issued by NWS Sioux Falls, SD

Home | Current Version | Previous Version | Graphics & Text | Print | Product List | Glossary Off
Versions: 1 2 3 4 5 6 7 8 9 10 11 12 13 14 15 16 17

000
FTUS43 KFSD 210259 AAB
TAFFSD
TAF AMD
KFSD 210259Z 2103/2124 VRB03KT P6SM SKC
      TEMPO 2105/2107 BKN020
     FM210700 16008KT P6SM FEW015
     FM211200 18014G20KT P6SM SCT015 BKN150
     FM212100 18011KT P6SM SCT015 BKN120=

USA.gov is the U.S. government's official web portal to all federal, state and local government web resources and services.